createdAt,value
2022-08-12T00:02:45.244Z,17.10
2022-08-12T00:05:32.172Z,17.10
2022-08-12T00:08:28.519Z,17.00
2022-08-12T00:11:17.088Z,16.90
2022-08-12T00:14:03.026Z,16.90
2022-08-12T00:16:49.496Z,16.80
2022-08-12T00:19:34.864Z,16.80
2022-08-12T00:22:20.328Z,16.80
2022-08-12T00:25:06.424Z,16.70
2022-08-12T00:27:51.616Z,16.70
2022-08-12T00:30:36.974Z,16.60
2022-08-12T00:33:22.522Z,16.60
2022-08-12T00:36:18.675Z,16.60
2022-08-12T00:39:17.574Z,16.50
2022-08-12T00:42:04.446Z,16.40
2022-08-12T00:44:31.191Z,16.40
2022-08-12T00:47:01.981Z,16.40
2022-08-12T00:49:30.518Z,16.30
2022-08-12T00:52:09.916Z,16.30
2022-08-12T00:54:44.857Z,16.20
2022-08-12T00:57:19.979Z,16.20
2022-08-12T00:59:58.427Z,16.20
2022-08-12T01:02:28.498Z,16.20
2022-08-12T01:05:21.376Z,16.20
2022-08-12T01:08:08.266Z,16.20
2022-08-12T01:10:56.724Z,16.10
2022-08-12T01:13:24.128Z,16.10
2022-08-12T01:15:53.611Z,16.10
2022-08-12T01:18:23.610Z,16.10
2022-08-12T01:21:11.828Z,16.10
2022-08-12T01:24:30.018Z,16.00
2022-08-12T01:26:56.275Z,16.10
2022-08-12T01:29:26.758Z,15.90
2022-08-12T01:31:58.102Z,15.90
2022-08-12T01:34:36.802Z,15.80
2022-08-12T01:37:07.155Z,15.90
2022-08-12T01:40:35.438Z,15.90
2022-08-12T01:42:51.843Z,15.80
2022-08-12T01:45:24.288Z,15.80
2022-08-12T01:48:05.104Z,15.70
2022-08-12T01:50:50.397Z,15.70
2022-08-12T01:53:20.791Z,15.70
2022-08-12T01:55:48.276Z,15.70
2022-08-12T01:58:27.018Z,15.70
2022-08-12T02:01:01.683Z,15.70
2022-08-12T02:03:55.544Z,15.70
2022-08-12T02:07:14.573Z,15.60
2022-08-12T02:10:50.133Z,15.60
2022-08-12T02:13:49.080Z,15.60
2022-08-12T02:16:41.315Z,15.60
2022-08-12T02:19:32.493Z,15.60
2022-08-12T02:22:32.039Z,15.60
2022-08-12T02:25:15.378Z,15.50
2022-08-12T02:27:45.746Z,15.50
2022-08-12T02:30:15.196Z,15.50
2022-08-12T02:32:45.110Z,15.50
2022-08-12T02:35:25.724Z,15.50
2022-08-12T02:37:55.684Z,15.50
2022-08-12T02:40:24.069Z,15.40
2022-08-12T02:43:22.695Z,15.40
2022-08-12T02:46:13.833Z,15.40
2022-08-12T02:48:51.810Z,15.40
2022-08-12T02:51:30.937Z,15.30
2022-08-12T02:54:02.909Z,15.30
2022-08-12T02:56:41.160Z,15.30
2022-08-12T02:59:11.866Z,15.30
2022-08-12T03:01:48.214Z,15.30
2022-08-12T03:04:24.406Z,15.40
2022-08-12T03:07:16.751Z,15.30
2022-08-12T03:10:07.159Z,15.30
2022-08-12T03:12:49.484Z,15.30
2022-08-12T03:15:22.197Z,15.30
2022-08-12T03:18:24.049Z,15.30
2022-08-12T03:20:54.680Z,15.30
2022-08-12T03:23:30.259Z,15.30
2022-08-12T03:26:01.595Z,15.30
2022-08-12T03:28:49.765Z,15.20
2022-08-12T03:31:25.782Z,15.30
2022-08-12T03:34:01.520Z,15.20
2022-08-12T03:36:31.207Z,15.20
2022-08-12T03:39:35.562Z,15.10
2022-08-12T03:42:22.215Z,15.10
2022-08-12T03:45:52.696Z,15.00
2022-08-12T03:48:38.701Z,15.00
2022-08-12T03:51:24.835Z,14.90
2022-08-12T03:54:11.452Z,14.80
2022-08-12T03:56:57.767Z,14.70
2022-08-12T03:59:43.262Z,14.80
2022-08-12T04:02:14.931Z,14.70
2022-08-12T04:04:45.095Z,14.70
2022-08-12T04:07:12.914Z,14.60
2022-08-12T04:09:41.850Z,14.60
2022-08-12T04:12:29.269Z,14.60
2022-08-12T04:15:00.897Z,14.60
2022-08-12T04:17:28.581Z,14.60
2022-08-12T04:19:56.534Z,14.50
2022-08-12T04:22:26.084Z,14.60
2022-08-12T04:24:53.811Z,14.50
2022-08-12T04:27:20.828Z,14.50
2022-08-12T04:30:21.053Z,14.50
2022-08-12T04:32:37.700Z,14.50
2022-08-12T04:35:08.057Z,14.60
2022-08-12T04:37:58.138Z,14.60
2022-08-12T04:40:28.465Z,14.60
2022-08-12T04:42:55.971Z,14.60
2022-08-12T04:45:22.905Z,14.70
2022-08-12T04:47:49.852Z,14.70
2022-08-12T04:50:35.373Z,14.70
2022-08-12T04:53:05.240Z,14.70
2022-08-12T04:55:33.375Z,14.80
2022-08-12T04:58:00.292Z,14.80
2022-08-12T05:00:27.613Z,14.90
2022-08-12T05:02:54.722Z,14.90
2022-08-12T05:05:23.356Z,14.80
2022-08-12T05:07:54.241Z,14.90
2022-08-12T05:10:33.203Z,14.90
2022-08-12T05:13:06.843Z,14.90
2022-08-12T05:15:34.767Z,15.00
2022-08-12T05:18:19.026Z,15.00
2022-08-12T05:20:48.257Z,15.00
2022-08-12T05:23:17.512Z,15.10
2022-08-12T05:25:49.215Z,15.10
2022-08-12T05:28:18.091Z,15.10
2022-08-12T05:30:45.667Z,15.20
2022-08-12T05:33:14.759Z,15.20
2022-08-12T05:35:43.846Z,15.30
2022-08-12T05:38:36.572Z,15.30
2022-08-12T05:41:06.263Z,15.30
2022-08-12T05:43:36.145Z,15.70
2022-08-12T05:46:02.811Z,17.10
2022-08-12T05:48:30.735Z,18.80
2022-08-12T05:50:57.524Z,19.20
2022-08-12T05:53:24.201Z,18.80
2022-08-12T05:55:53.143Z,18.30
2022-08-12T05:58:21.089Z,17.90
2022-08-12T06:00:47.728Z,17.70
2022-08-12T06:03:17.376Z,17.50
2022-08-12T06:05:55.585Z,17.40
2022-08-12T06:08:23.942Z,17.40
2022-08-12T06:10:50.881Z,17.50
2022-08-12T06:13:28.734Z,17.60
2022-08-12T06:16:07.207Z,17.80
2022-08-12T06:18:34.346Z,18.00
2022-08-12T06:21:01.885Z,18.10
2022-08-12T06:23:30.166Z,18.30
2022-08-12T06:25:58.088Z,18.50
2022-08-12T06:28:25.631Z,18.70
2022-08-12T06:31:22.261Z,18.90
2022-08-12T06:33:57.555Z,19.10
2022-08-12T06:36:30.064Z,19.40
2022-08-12T06:38:59.497Z,19.50
2022-08-12T06:42:05.081Z,19.70
2022-08-12T06:44:32.491Z,19.90
2022-08-12T06:46:59.285Z,20.20
2022-08-12T06:49:27.540Z,20.40
2022-08-12T06:51:56.913Z,20.70
2022-08-12T06:54:31.108Z,21.20
2022-08-12T06:57:14.275Z,21.50
2022-08-12T06:59:50.371Z,21.80
2022-08-12T07:02:20.514Z,22.20
2022-08-12T07:04:48.068Z,22.30
2022-08-12T07:07:15.250Z,22.50
2022-08-12T07:10:06.818Z,22.70
2022-08-12T07:12:30.356Z,22.90
2022-08-12T07:14:58.757Z,23.10
2022-08-12T07:17:35.644Z,23.20
2022-08-12T07:20:05.835Z,23.20
2022-08-12T07:22:33.323Z,23.30
2022-08-12T07:25:18.526Z,23.20
2022-08-12T07:27:46.529Z,23.30
2022-08-12T07:30:14.257Z,23.30
2022-08-12T07:32:41.389Z,23.50
2022-08-12T07:35:08.526Z,23.50
2022-08-12T07:37:41.973Z,23.60
2022-08-12T07:40:11.573Z,23.70
2022-08-12T07:42:40.149Z,23.80
2022-08-12T07:45:07.513Z,23.80
2022-08-12T07:47:34.530Z,23.90
2022-08-12T07:50:05.232Z,23.80
2022-08-12T07:52:42.565Z,24.00
2022-08-12T07:55:11.273Z,24.00
2022-08-12T07:57:59.120Z,23.90
2022-08-12T08:00:28.181Z,23.80
2022-08-12T08:02:55.482Z,23.90
2022-08-12T08:05:24.694Z,23.90
2022-08-12T08:07:53.484Z,24.00
2022-08-12T08:10:20.865Z,24.10
2022-08-12T08:12:58.771Z,24.10
2022-08-12T08:16:00.646Z,24.20
2022-08-12T08:18:26.863Z,24.30
2022-08-12T08:20:54.928Z,24.10
2022-08-12T08:23:21.814Z,24.20
2022-08-12T08:25:49.978Z,24.20
2022-08-12T08:28:17.305Z,24.50
2022-08-12T08:30:47.668Z,24.80
2022-08-12T08:33:23.046Z,25.00
2022-08-12T08:36:03.109Z,24.90
2022-08-12T08:38:32.771Z,24.90
2022-08-12T08:42:19.028Z,24.90
2022-08-12T08:44:10.581Z,25.10
2022-08-12T08:46:38.096Z,25.20
2022-08-12T08:49:05.735Z,25.40
2022-08-12T08:51:33.317Z,25.20
2022-08-12T08:54:00.126Z,25.20
2022-08-12T08:56:30.354Z,25.20
2022-08-12T08:58:57.705Z,25.40
2022-08-12T09:01:25.616Z,25.10
2022-08-12T09:05:09.007Z,25.10
2022-08-12T09:06:41.931Z,25.10
2022-08-12T09:09:20.357Z,25.30
2022-08-12T09:12:11.016Z,25.30
2022-08-12T09:14:43.502Z,25.40
2022-08-12T09:17:21.230Z,25.40
2022-08-12T09:19:55.241Z,25.50
2022-08-12T09:22:43.274Z,25.70
2022-08-12T09:25:10.943Z,25.80
2022-08-12T09:27:55.415Z,25.70
2022-08-12T09:30:48.799Z,25.70
2022-08-12T09:33:18.905Z,25.70
2022-08-12T09:36:03.332Z,25.70
2022-08-12T09:38:33.640Z,25.70
2022-08-12T09:42:08.911Z,25.90
2022-08-12T09:44:37.796Z,26.10
2022-08-12T09:46:56.096Z,26.10
2022-08-12T09:49:24.883Z,26.00
2022-08-12T09:51:54.971Z,25.90
2022-08-12T09:54:34.917Z,26.00
2022-08-12T09:58:45.162Z,26.10
2022-08-12T10:00:16.221Z,26.40
2022-08-12T10:02:59.648Z,26.50
2022-08-12T10:06:20.511Z,26.50
2022-08-12T10:08:19.890Z,26.60
2022-08-12T10:11:06.805Z,26.70
2022-08-12T10:13:43.038Z,26.60
2022-08-12T10:16:22.135Z,26.50
2022-08-12T10:18:57.177Z,26.70
2022-08-12T10:21:36.044Z,26.70
2022-08-12T10:24:05.256Z,26.70
2022-08-12T10:26:51.820Z,26.70
2022-08-12T10:30:37.843Z,26.70
2022-08-12T10:32:44.946Z,26.70
2022-08-12T10:35:14.795Z,26.70
2022-08-12T10:38:36.412Z,26.70
2022-08-12T10:40:33.219Z,26.50
2022-08-12T10:43:19.963Z,26.50
2022-08-12T10:45:49.178Z,26.30
2022-08-12T10:48:21.839Z,26.50
2022-08-12T10:51:01.998Z,26.70
2022-08-12T10:53:45.086Z,26.90
2022-08-12T10:56:17.131Z,26.60
2022-08-12T10:58:47.138Z,26.70
2022-08-12T11:01:50.374Z,26.50
2022-08-12T11:04:22.743Z,26.50
2022-08-12T11:07:10.318Z,26.60
2022-08-12T11:09:56.554Z,26.80
2022-08-12T11:12:55.657Z,26.90
2022-08-12T11:15:19.411Z,27.10
2022-08-12T11:17:54.081Z,27.20
2022-08-12T11:20:24.423Z,27.30
2022-08-12T11:23:04.238Z,27.10
2022-08-12T11:25:58.162Z,27.00
2022-08-12T11:28:33.899Z,27.30
2022-08-12T11:31:03.405Z,27.40
2022-08-12T11:34:05.276Z,27.50
2022-08-12T11:36:17.534Z,27.50
2022-08-12T11:38:50.290Z,27.60
2022-08-12T11:41:31.668Z,27.60
2022-08-12T11:44:29.101Z,27.60
2022-08-12T11:46:52.423Z,27.60
2022-08-12T11:49:26.897Z,27.30
2022-08-12T11:52:01.089Z,27.30
2022-08-12T11:54:29.653Z,27.00
2022-08-12T11:57:00.070Z,27.30
2022-08-12T12:02:18.832Z,27.60
2022-08-12T12:04:53.053Z,27.70
2022-08-12T12:07:33.692Z,27.80
2022-08-12T12:10:10.832Z,28.00
2022-08-12T12:12:37.897Z,28.10
2022-08-12T12:15:09.823Z,28.30
2022-08-12T12:17:38.806Z,28.40
2022-08-12T12:20:09.328Z,28.40
2022-08-12T12:22:37.449Z,28.30
2022-08-12T12:25:13.349Z,28.30
2022-08-12T12:28:05.055Z,28.30
2022-08-12T12:30:35.876Z,28.30
2022-08-12T12:33:05.124Z,28.30
2022-08-12T12:36:05.779Z,28.20
2022-08-12T12:38:19.901Z,28.30
2022-08-12T12:40:50.574Z,28.20
2022-08-12T12:43:42.566Z,28.40
2022-08-12T12:46:05.316Z,28.30
2022-08-12T12:48:32.053Z,28.20
2022-08-12T12:51:49.225Z,28.30
2022-08-12T12:54:08.653Z,28.20
2022-08-12T12:56:40.242Z,28.40
2022-08-12T12:59:07.482Z,28.40
2022-08-12T13:01:54.403Z,28.60
2022-08-12T13:04:21.470Z,28.80
2022-08-12T13:06:51.957Z,28.90
2022-08-12T13:09:19.412Z,28.90
2022-08-12T13:11:53.021Z,28.70
2022-08-12T13:14:29.483Z,28.70
2022-08-12T13:17:00.955Z,28.70
2022-08-12T13:19:37.851Z,28.60
2022-08-12T13:22:21.334Z,28.70
2022-08-12T13:24:55.702Z,28.60
2022-08-12T13:27:41.528Z,28.70
2022-08-12T13:30:20.255Z,28.80
2022-08-12T13:32:59.110Z,28.70
2022-08-12T13:36:03.079Z,28.70
2022-08-12T13:38:13.065Z,28.50
2022-08-12T13:40:40.409Z,28.30
2022-08-12T13:43:07.517Z,28.50
2022-08-12T13:45:35.448Z,28.70
2022-08-12T13:48:05.611Z,28.80
2022-08-12T13:50:40.188Z,28.90
2022-08-12T13:53:24.461Z,28.70
2022-08-12T13:55:59.814Z,28.70
2022-08-12T13:58:30.327Z,28.80
2022-08-12T14:00:58.080Z,28.80
2022-08-12T14:03:28.427Z,28.80
2022-08-12T14:06:15.511Z,28.80
2022-08-12T14:08:43.136Z,28.50
2022-08-12T14:11:10.591Z,28.40
2022-08-12T14:14:04.235Z,28.40
2022-08-12T14:16:37.809Z,28.50
2022-08-12T14:19:22.008Z,28.50
2022-08-12T14:22:01.033Z,28.60
2022-08-12T14:24:35.434Z,28.70
2022-08-12T14:27:03.727Z,28.70
2022-08-12T14:29:56.191Z,28.60
2022-08-12T14:32:32.549Z,28.60
2022-08-12T14:34:59.235Z,28.60
2022-08-12T14:37:56.331Z,28.60
2022-08-12T14:40:18.799Z,28.70
2022-08-12T14:42:54.530Z,28.50
2022-08-12T14:45:22.831Z,28.40
2022-08-12T14:47:53.518Z,28.50
2022-08-12T14:50:37.430Z,28.60
2022-08-12T14:54:49.942Z,28.70
2022-08-12T14:59:20.681Z,28.80
2022-08-12T15:01:50.821Z,28.80
2022-08-12T15:04:22.470Z,28.80
2022-08-12T15:06:52.571Z,28.70
2022-08-12T15:09:29.041Z,28.80
2022-08-12T15:12:03.711Z,28.80
2022-08-12T15:14:31.739Z,28.80
2022-08-12T15:17:00.196Z,28.80
2022-08-12T15:20:32.040Z,28.80
2022-08-12T15:22:35.983Z,28.90
2022-08-12T15:25:07.086Z,28.80
2022-08-12T15:28:03.726Z,28.80
2022-08-12T15:30:30.652Z,28.70
2022-08-12T15:32:57.927Z,28.70
2022-08-12T15:35:31.150Z,28.50
2022-08-12T15:38:10.166Z,28.50
2022-08-12T15:40:48.314Z,28.50
2022-08-12T15:43:35.571Z,28.60
2022-08-12T15:46:04.700Z,28.50
2022-08-12T15:48:32.659Z,28.50
2022-08-12T15:51:00.505Z,28.50
2022-08-12T15:53:46.622Z,28.60
2022-08-12T15:56:29.282Z,28.50
2022-08-12T15:58:58.768Z,28.50
2022-08-12T16:01:35.583Z,28.50
2022-08-12T16:04:05.144Z,28.40
2022-08-12T16:09:55.777Z,28.40
2022-08-12T16:12:12.209Z,28.40
2022-08-12T16:14:41.404Z,28.30
2022-08-12T16:17:15.605Z,28.30
2022-08-12T16:20:02.409Z,28.30
2022-08-12T16:22:29.170Z,28.30
2022-08-12T16:24:56.574Z,28.40
2022-08-12T16:27:25.449Z,28.50
2022-08-12T16:29:57.464Z,28.60
2022-08-12T16:32:31.670Z,28.60
2022-08-12T16:34:59.899Z,28.50
2022-08-12T16:38:04.761Z,28.50
2022-08-12T16:40:16.089Z,28.30
2022-08-12T16:42:54.362Z,28.20
2022-08-12T16:45:32.275Z,28.10
2022-08-12T16:48:34.243Z,28.00
2022-08-12T16:51:09.314Z,27.90
2022-08-12T16:53:44.314Z,27.90
2022-08-12T16:56:14.685Z,27.90
2022-08-12T16:58:42.146Z,27.80
2022-08-12T17:01:14.601Z,27.80
2022-08-12T17:03:47.032Z,27.80
2022-08-12T17:06:27.554Z,27.80
2022-08-12T17:09:02.631Z,27.70
2022-08-12T17:11:32.502Z,27.70
2022-08-12T17:13:59.631Z,27.70
2022-08-12T17:16:30.358Z,27.60
2022-08-12T17:18:59.628Z,27.50
2022-08-12T17:21:41.591Z,27.40
2022-08-12T17:24:21.576Z,27.40
2022-08-12T17:26:53.724Z,27.40
2022-08-12T17:29:32.268Z,27.40
2022-08-12T17:32:10.001Z,27.30
2022-08-12T17:35:00.311Z,27.30
2022-08-12T17:37:27.742Z,27.20
2022-08-12T17:40:13.766Z,27.20
2022-08-12T17:42:47.712Z,27.20
2022-08-12T17:45:19.725Z,27.20
2022-08-12T17:48:04.815Z,27.00
2022-08-12T17:50:42.552Z,27.10
2022-08-12T17:53:10.075Z,26.90
2022-08-12T17:55:47.869Z,26.90
2022-08-12T17:58:37.343Z,26.90
2022-08-12T18:01:05.821Z,26.90
2022-08-12T18:04:05.356Z,26.90
2022-08-12T18:06:28.036Z,26.80
2022-08-12T18:08:58.675Z,26.80
2022-08-12T18:12:03.650Z,26.60
2022-08-12T18:17:46.937Z,26.50
2022-08-12T18:20:18.095Z,26.40
2022-08-12T18:22:47.077Z,26.40
2022-08-12T18:26:15.852Z,26.40
2022-08-12T18:28:29.170Z,26.30
2022-08-12T18:31:03.019Z,26.20
2022-08-12T18:33:41.567Z,26.10
2022-08-12T18:36:13.036Z,25.90
2022-08-12T18:38:41.457Z,25.70
2022-08-12T18:41:30.652Z,25.60
2022-08-12T18:44:12.143Z,25.60
2022-08-12T18:46:57.141Z,25.40
2022-08-12T18:49:33.305Z,25.30
2022-08-12T18:52:05.795Z,25.20
2022-08-12T18:54:53.901Z,25.10
2022-08-12T18:58:06.890Z,25.00
2022-08-12T19:00:21.057Z,24.80
2022-08-12T19:02:53.380Z,24.60
2022-08-12T19:05:20.882Z,24.50
2022-08-12T19:08:00.378Z,24.40
2022-08-12T19:10:31.212Z,24.30
2022-08-12T19:13:23.144Z,24.20
2022-08-12T19:15:54.144Z,24.00
2022-08-12T19:18:24.436Z,23.90
2022-08-12T19:20:56.885Z,23.70
2022-08-12T19:23:35.128Z,23.60
2022-08-12T19:26:05.392Z,23.50
2022-08-12T19:28:39.692Z,23.40
2022-08-12T19:31:56.039Z,23.40
2022-08-12T19:37:22.898Z,23.00
2022-08-12T19:40:09.768Z,22.90
2022-08-12T19:42:53.367Z,22.80
2022-08-12T19:45:22.202Z,22.70
2022-08-12T19:47:49.250Z,22.50
2022-08-12T19:50:19.675Z,22.40
2022-08-12T19:52:47.417Z,22.40
2022-08-12T19:55:21.165Z,22.40
2022-08-12T19:58:02.308Z,22.30
2022-08-12T20:00:34.445Z,22.20
2022-08-12T20:03:04.533Z,22.00
2022-08-12T20:06:05.328Z,21.90
2022-08-12T20:08:33.137Z,21.80
2022-08-12T20:12:09.559Z,21.70
2022-08-12T20:14:00.481Z,21.50
2022-08-12T20:16:51.900Z,21.50
2022-08-12T20:19:20.049Z,21.30
2022-08-12T20:21:47.012Z,21.20
2022-08-12T20:24:14.459Z,21.10
2022-08-12T20:26:42.979Z,21.10
2022-08-12T20:29:13.953Z,21.00
2022-08-12T20:31:41.466Z,21.00
2022-08-12T20:34:12.404Z,20.90
2022-08-12T20:36:44.244Z,20.90
2022-08-12T20:39:37.101Z,20.80
2022-08-12T20:42:07.200Z,20.70
2022-08-12T20:44:40.566Z,20.60
2022-08-12T20:47:18.038Z,20.50
2022-08-12T20:49:55.320Z,20.40
2022-08-12T20:52:29.900Z,20.30
2022-08-12T20:54:57.832Z,20.20
2022-08-12T20:57:38.506Z,20.10
2022-08-12T21:00:16.753Z,20.10
2022-08-12T21:02:50.180Z,20.10
2022-08-12T21:06:12.378Z,20.00
2022-08-12T21:08:27.331Z,20.00
2022-08-12T21:10:58.864Z,19.90
2022-08-12T21:13:26.710Z,19.80
2022-08-12T21:15:59.942Z,19.70
2022-08-12T21:18:30.533Z,19.70
2022-08-12T21:20:59.168Z,19.60
2022-08-12T21:23:30.774Z,19.50
2022-08-12T21:26:12.333Z,19.50
2022-08-12T21:28:58.457Z,19.50
2022-08-12T21:32:39.410Z,19.50
2022-08-12T21:34:19.918Z,19.40
2022-08-12T21:36:49.467Z,19.30
2022-08-12T21:39:21.453Z,19.20
2022-08-12T21:41:52.622Z,19.20
2022-08-12T21:45:43.997Z,19.20
2022-08-12T21:47:21.575Z,19.20
2022-08-12T21:50:04.351Z,19.10
2022-08-12T21:52:40.964Z,19.10
2022-08-12T21:55:19.061Z,19.10
2022-08-12T21:57:54.607Z,19.00
2022-08-12T22:00:34.333Z,18.90
2022-08-12T22:04:01.432Z,18.80
2022-08-12T22:06:26.044Z,18.80
2022-08-12T22:09:01.960Z,18.70
2022-08-12T22:11:41.958Z,18.60
2022-08-12T22:14:18.048Z,18.60
2022-08-12T22:16:52.016Z,18.50
2022-08-12T22:19:19.619Z,18.50
2022-08-12T22:21:53.064Z,18.40
2022-08-12T22:24:25.948Z,18.40
2022-08-12T22:26:54.941Z,18.30
2022-08-12T22:29:40.692Z,18.30
2022-08-12T22:32:11.308Z,18.20
2022-08-12T22:34:39.822Z,18.20
2022-08-12T22:37:11.547Z,18.10
2022-08-12T22:39:49.166Z,18.10
2022-08-12T22:42:35.646Z,18.10
2022-08-12T22:45:26.649Z,18.10
2022-08-12T22:47:56.320Z,18.10
2022-08-12T22:50:26.883Z,18.00
2022-08-12T22:53:15.289Z,18.00
2022-08-12T22:56:00.080Z,18.00
2022-08-12T22:58:33.810Z,17.90
2022-08-12T23:01:02.268Z,17.90
2022-08-12T23:03:48.752Z,17.80
2022-08-12T23:06:19.923Z,17.80
2022-08-12T23:08:48.192Z,17.80
2022-08-12T23:11:16.062Z,17.80
2022-08-12T23:13:55.132Z,17.70
2022-08-12T23:16:31.802Z,17.70
2022-08-12T23:19:09.772Z,17.60
2022-08-12T23:22:05.356Z,17.50
2022-08-12T23:24:55.416Z,17.50
2022-08-12T23:27:51.361Z,17.50
2022-08-12T23:30:32.173Z,17.50
2022-08-12T23:33:13.226Z,17.50
2022-08-12T23:36:02.981Z,17.50
2022-08-12T23:41:13.253Z,17.40
2022-08-12T23:43:46.731Z,17.30
2022-08-12T23:46:18.712Z,17.30
2022-08-12T23:48:48.095Z,17.30
2022-08-12T23:51:25.366Z,17.30
2022-08-12T23:54:00.330Z,17.30
2022-08-12T23:56:33.737Z,17.30
2022-08-12T23:59:05.740Z,17.20
